createdAt,value
2022-12-15T00:01:12.429Z,56.06
2022-12-15T00:03:40.151Z,56.07
2022-12-15T00:06:07.616Z,56.02
2022-12-15T00:08:34.978Z,55.74
2022-12-15T00:11:03.135Z,55.46
2022-12-15T00:13:30.880Z,56.00
2022-12-15T00:15:58.622Z,56.20
2022-12-15T00:18:25.995Z,56.04
2022-12-15T00:20:58.642Z,55.88
2022-12-15T00:23:26.399Z,55.78
2022-12-15T00:25:53.950Z,55.84
2022-12-15T00:28:21.262Z,55.24
2022-12-15T00:30:49.816Z,55.64
2022-12-15T00:33:17.816Z,55.42
2022-12-15T00:35:45.400Z,55.63
2022-12-15T00:38:15.254Z,55.42
2022-12-15T00:40:42.470Z,55.46
2022-12-15T00:43:09.690Z,55.72
2022-12-15T00:45:37.083Z,56.54
2022-12-15T00:48:04.749Z,56.26
2022-12-15T00:50:32.238Z,56.06
2022-12-15T00:52:59.585Z,56.06
2022-12-15T00:55:26.842Z,56.10
2022-12-15T00:57:54.308Z,55.61
2022-12-15T01:00:22.157Z,55.90
2022-12-15T01:02:49.651Z,55.96
2022-12-15T01:05:17.082Z,55.63
2022-12-15T01:07:44.494Z,55.92
2022-12-15T01:10:18.509Z,55.83
2022-12-15T01:12:47.175Z,55.90
2022-12-15T01:15:15.202Z,56.18
2022-12-15T01:17:42.469Z,55.53
2022-12-15T01:20:13.671Z,55.51
2022-12-15T01:22:42.589Z,55.73
2022-12-15T01:25:11.642Z,55.33
2022-12-15T01:27:39.296Z,55.29
2022-12-15T01:30:10.130Z,55.69
2022-12-15T01:32:41.429Z,55.54
2022-12-15T01:35:12.047Z,56.84
2022-12-15T01:37:39.791Z,56.44
2022-12-15T01:40:09.453Z,56.37
2022-12-15T01:42:36.645Z,56.75
2022-12-15T01:45:28.949Z,56.78
2022-12-15T01:48:23.430Z,56.51
2022-12-15T01:51:03.239Z,56.47
2022-12-15T01:53:39.868Z,56.41
2022-12-15T01:56:10.205Z,56.40
2022-12-15T01:58:43.398Z,56.10
2022-12-15T02:01:11.195Z,56.11
2022-12-15T02:03:40.735Z,55.76
2022-12-15T02:06:10.201Z,56.15
2022-12-15T02:08:38.082Z,55.74
2022-12-15T02:11:59.292Z,55.93
2022-12-15T02:14:43.377Z,55.84
2022-12-15T02:17:57.839Z,55.68
2022-12-15T02:21:01.216Z,55.42
2022-12-15T02:24:10.286Z,55.46
2022-12-15T02:26:52.632Z,55.72
2022-12-15T02:30:16.167Z,55.72
2022-12-15T02:33:08.132Z,55.34
2022-12-15T02:35:57.272Z,55.31
2022-12-15T02:38:38.096Z,55.11
2022-12-15T02:41:26.806Z,55.66
2022-12-15T02:43:54.104Z,55.61
2022-12-15T02:46:46.359Z,55.58
2022-12-15T02:49:39.575Z,55.87
2022-12-15T02:52:34.667Z,55.57
2022-12-15T02:55:46.658Z,55.63
2022-12-15T02:58:49.003Z,55.77
2022-12-15T03:01:41.906Z,55.75
2022-12-15T03:04:12.790Z,56.32
2022-12-15T03:06:40.326Z,56.32
2022-12-15T03:09:07.927Z,56.30
2022-12-15T03:11:37.149Z,56.10
2022-12-15T03:14:04.447Z,56.08
2022-12-15T03:16:31.834Z,56.50
2022-12-15T03:18:59.209Z,56.87
2022-12-15T03:21:26.481Z,56.50
2022-12-15T03:23:53.875Z,56.41
2022-12-15T03:26:21.153Z,56.56
2022-12-15T03:28:48.494Z,56.75
2022-12-15T03:31:16.148Z,56.68
2022-12-15T03:33:43.496Z,56.22
2022-12-15T03:36:10.901Z,56.32
2022-12-15T03:38:38.175Z,56.04
2022-12-15T03:41:05.530Z,55.92
2022-12-15T03:43:33.156Z,55.54
2022-12-15T03:46:00.968Z,56.00
2022-12-15T03:48:28.257Z,55.88
2022-12-15T03:50:55.541Z,56.02
2022-12-15T03:53:23.061Z,56.13
2022-12-15T03:55:50.311Z,56.35
2022-12-15T03:58:17.613Z,56.19
2022-12-15T04:00:44.915Z,55.91
2022-12-15T04:03:12.263Z,56.34
2022-12-15T04:05:40.125Z,55.99
2022-12-15T04:08:07.515Z,55.84
2022-12-15T04:10:35.932Z,55.39
2022-12-15T04:13:10.282Z,55.73
2022-12-15T04:15:40.061Z,56.19
2022-12-15T04:18:10.529Z,56.06
2022-12-15T04:20:40.463Z,55.66
2022-12-15T04:23:08.209Z,56.25
2022-12-15T04:25:36.684Z,55.80
2022-12-15T04:28:05.951Z,55.16
2022-12-15T04:30:34.013Z,55.28
2022-12-15T04:33:04.949Z,55.19
2022-12-15T04:35:35.578Z,55.31
2022-12-15T04:38:03.998Z,55.47
2022-12-15T04:40:31.750Z,56.00
2022-12-15T04:42:59.330Z,55.82
2022-12-15T04:45:29.105Z,56.03
2022-12-15T04:48:00.889Z,56.21
2022-12-15T04:50:29.049Z,56.09
2022-12-15T04:52:56.462Z,56.42
2022-12-15T04:55:24.545Z,56.70
2022-12-15T04:57:52.154Z,56.61
2022-12-15T05:00:22.653Z,56.27
2022-12-15T05:02:50.016Z,55.83
2022-12-15T05:05:17.696Z,56.31
2022-12-15T05:07:44.934Z,56.20
2022-12-15T05:10:15.143Z,55.54
2022-12-15T05:12:43.829Z,55.77
2022-12-15T05:15:11.251Z,55.68
2022-12-15T05:17:41.675Z,55.27
2022-12-15T05:20:10.162Z,55.24
2022-12-15T05:22:37.397Z,55.24
2022-12-15T05:25:05.256Z,55.26
2022-12-15T05:27:32.591Z,55.54
2022-12-15T05:29:59.867Z,55.51
2022-12-15T05:32:27.133Z,55.75
2022-12-15T05:34:54.406Z,55.46
2022-12-15T05:37:21.788Z,55.60
2022-12-15T05:39:49.075Z,55.97
2022-12-15T05:42:16.384Z,56.14
2022-12-15T05:44:43.732Z,56.76
2022-12-15T05:47:12.158Z,56.68
2022-12-15T05:49:39.435Z,56.93
2022-12-15T05:52:07.108Z,56.80
2022-12-15T05:54:34.298Z,57.02
2022-12-15T05:57:01.745Z,56.89
2022-12-15T05:59:28.956Z,57.17
2022-12-15T06:01:56.382Z,56.59
2022-12-15T06:04:24.067Z,56.21
2022-12-15T06:06:51.591Z,56.28
2022-12-15T06:09:19.103Z,56.71
2022-12-15T06:11:46.508Z,56.80
2022-12-15T06:14:13.973Z,56.67
2022-12-15T06:16:51.179Z,56.43
2022-12-15T06:19:19.469Z,56.45
2022-12-15T06:21:47.276Z,56.20
2022-12-15T06:24:14.723Z,57.23
2022-12-15T06:26:42.034Z,56.60
2022-12-15T06:29:12.394Z,56.38
2022-12-15T06:31:41.602Z,55.79
2022-12-15T06:34:13.799Z,55.72
2022-12-15T06:36:42.008Z,56.30
2022-12-15T06:39:14.020Z,56.40
2022-12-15T06:41:44.647Z,56.05
2022-12-15T06:44:16.171Z,56.18
2022-12-15T06:46:43.954Z,56.15
2022-12-15T06:49:11.368Z,56.51
2022-12-15T06:51:38.870Z,56.71
2022-12-15T06:54:06.274Z,56.72
2022-12-15T06:56:35.782Z,56.22
2022-12-15T06:59:10.659Z,56.60
2022-12-15T07:01:38.108Z,56.68
2022-12-15T07:04:06.040Z,56.93
2022-12-15T07:06:37.143Z,57.28
2022-12-15T07:09:07.651Z,57.58
2022-12-15T07:11:35.659Z,57.45
2022-12-15T07:14:03.049Z,57.13
2022-12-15T07:16:31.518Z,56.88
2022-12-15T07:18:58.959Z,56.96
2022-12-15T07:21:26.380Z,57.34
2022-12-15T07:23:56.270Z,56.99
2022-12-15T07:26:25.183Z,57.38
2022-12-15T07:28:53.275Z,56.98
2022-12-15T07:31:20.962Z,57.27
2022-12-15T07:33:48.569Z,57.41
2022-12-15T07:36:16.323Z,57.65
2022-12-15T07:38:43.686Z,57.06
2022-12-15T07:41:11.047Z,57.17
2022-12-15T07:43:38.597Z,57.22
2022-12-15T07:46:07.288Z,57.67
2022-12-15T07:48:34.830Z,57.64
2022-12-15T07:51:15.238Z,57.92
2022-12-15T07:53:44.854Z,58.04
2022-12-15T07:56:12.538Z,57.57
2022-12-15T07:58:39.771Z,58.26
2022-12-15T08:01:12.225Z,57.81
2022-12-15T08:03:40.893Z,57.48
2022-12-15T08:06:12.646Z,57.55
2022-12-15T08:08:41.254Z,57.79
2022-12-15T08:11:12.468Z,57.71
2022-12-15T08:16:29.502Z,60.17
2022-12-15T08:18:56.733Z,59.89
2022-12-15T08:21:24.878Z,59.48
2022-12-15T08:23:52.319Z,59.60
2022-12-15T08:26:30.889Z,59.21
2022-12-15T08:29:24.491Z,59.10
2022-12-15T08:31:52.165Z,58.77
2022-12-15T08:34:20.067Z,58.85
2022-12-15T08:36:47.371Z,60.25
2022-12-15T08:39:15.027Z,60.45
2022-12-15T08:41:42.262Z,59.92
2022-12-15T08:44:09.708Z,59.73
2022-12-15T08:46:37.046Z,59.63
2022-12-15T08:49:04.709Z,59.35
2022-12-15T08:51:33.170Z,59.11
2022-12-15T08:54:01.496Z,59.29
2022-12-15T08:56:30.086Z,59.21
2022-12-15T08:59:02.117Z,59.22
2022-12-15T09:01:32.103Z,59.40
2022-12-15T09:04:00.062Z,59.28
2022-12-15T09:06:34.425Z,60.03
2022-12-15T09:09:06.567Z,59.74
2022-12-15T09:11:34.942Z,60.30
2022-12-15T09:14:02.575Z,60.09
2022-12-15T09:16:30.110Z,60.08
2022-12-15T09:19:00.250Z,59.90
2022-12-15T09:21:30.490Z,59.92
2022-12-15T09:24:01.245Z,60.18
2022-12-15T09:26:33.351Z,59.56
2022-12-15T09:29:01.671Z,59.83
2022-12-15T09:31:32.471Z,59.60
2022-12-15T09:34:01.207Z,59.68
2022-12-15T09:36:30.067Z,59.43
2022-12-15T09:38:57.363Z,59.49
2022-12-15T09:41:30.516Z,59.45
2022-12-15T09:44:06.712Z,59.58
2022-12-15T09:47:22.188Z,59.38
2022-12-15T09:49:57.207Z,59.64
2022-12-15T09:52:46.204Z,59.78
2022-12-15T09:55:25.376Z,60.18
2022-12-15T09:58:10.973Z,59.98
2022-12-15T10:00:55.450Z,60.39
2022-12-15T10:03:51.392Z,60.60
2022-12-15T10:06:43.627Z,60.64
2022-12-15T10:09:27.204Z,60.39
2022-12-15T10:12:02.429Z,60.57
2022-12-15T10:15:07.772Z,60.58
2022-12-15T10:17:55.440Z,60.50
2022-12-15T10:20:26.515Z,60.92
2022-12-15T10:22:57.179Z,60.91
2022-12-15T10:25:31.872Z,60.87
2022-12-15T10:28:17.123Z,61.22
2022-12-15T10:30:58.625Z,60.88
2022-12-15T10:33:36.278Z,61.26
2022-12-15T10:36:14.630Z,61.10
2022-12-15T10:38:46.034Z,60.98
2022-12-15T10:41:24.997Z,60.93
2022-12-15T10:46:45.473Z,61.43
2022-12-15T10:49:22.819Z,61.07
2022-12-15T10:51:58.102Z,60.80
2022-12-15T10:54:34.686Z,60.81
2022-12-15T10:57:21.544Z,61.12
2022-12-15T10:59:50.336Z,60.91
2022-12-15T11:02:30.248Z,61.17
2022-12-15T11:05:15.216Z,61.13
2022-12-15T11:07:56.383Z,61.21
2022-12-15T11:10:31.361Z,61.08
2022-12-15T11:13:18.363Z,60.64
2022-12-15T11:15:50.758Z,60.71
2022-12-15T11:18:18.122Z,60.80
2022-12-15T11:21:04.806Z,60.76
2022-12-15T11:24:05.498Z,60.55
2022-12-15T11:26:53.660Z,60.38
2022-12-15T11:29:50.218Z,60.28
2022-12-15T11:32:25.716Z,59.90
2022-12-15T11:34:53.285Z,59.65
2022-12-15T11:37:42.256Z,59.48
2022-12-15T11:40:34.938Z,59.41
2022-12-15T11:43:37.504Z,59.53
2022-12-15T11:46:24.987Z,59.36
2022-12-15T11:49:11.001Z,59.62
2022-12-15T11:52:17.542Z,59.38
2022-12-15T11:54:55.142Z,59.38
2022-12-15T11:57:53.144Z,60.10
2022-12-15T12:00:22.460Z,60.51
2022-12-15T12:03:07.507Z,60.45
2022-12-15T12:06:08.700Z,60.64
2022-12-15T12:08:56.193Z,60.52
2022-12-15T12:11:42.873Z,60.59
2022-12-15T12:14:54.665Z,60.61
2022-12-15T12:17:51.751Z,61.12
2022-12-15T12:20:25.933Z,60.99
2022-12-15T12:23:04.645Z,61.10
2022-12-15T12:25:43.286Z,61.29
2022-12-15T12:28:25.572Z,61.07
2022-12-15T12:30:57.715Z,60.98
2022-12-15T12:33:52.416Z,61.44
2022-12-15T12:36:19.908Z,61.58
2022-12-15T12:38:57.856Z,61.70
2022-12-15T12:41:45.034Z,61.99
2022-12-15T12:44:28.775Z,61.77
2022-12-15T12:46:59.153Z,61.85
2022-12-15T12:49:37.898Z,62.13
2022-12-15T12:52:34.568Z,61.80
2022-12-15T12:55:40.731Z,61.62
2022-12-15T12:58:38.591Z,62.14
2022-12-15T13:01:12.065Z,61.96
2022-12-15T13:03:42.516Z,62.20
2022-12-15T13:06:36.663Z,62.83
2022-12-15T13:09:19.161Z,62.96
2022-12-15T13:11:49.437Z,62.55
2022-12-15T13:14:41.008Z,62.76
2022-12-15T13:17:38.896Z,62.93
2022-12-15T13:20:19.644Z,62.76
2022-12-15T13:22:47.238Z,63.03
2022-12-15T13:25:38.812Z,63.47
2022-12-15T13:28:26.535Z,63.12
2022-12-15T13:31:18.508Z,63.61
2022-12-15T13:33:51.931Z,63.60
2022-12-15T13:36:37.750Z,63.92
2022-12-15T13:39:17.197Z,63.94
2022-12-15T13:42:23.868Z,63.85
2022-12-15T13:44:52.096Z,63.92
2022-12-15T13:47:29.424Z,64.12
2022-12-15T13:50:32.850Z,64.42
2022-12-15T13:53:30.571Z,64.55
2022-12-15T13:56:11.857Z,64.50
2022-12-15T13:58:50.875Z,64.11
2022-12-15T14:01:33.195Z,64.12
2022-12-15T14:04:13.370Z,63.41
2022-12-15T14:07:06.259Z,63.20
2022-12-15T14:09:39.332Z,63.03
2022-12-15T14:12:13.732Z,63.20
2022-12-15T14:14:49.323Z,63.09
2022-12-15T14:17:19.111Z,63.01
2022-12-15T14:19:50.918Z,62.99
2022-12-15T14:22:29.907Z,63.03
2022-12-15T14:25:30.757Z,63.09
2022-12-15T14:27:58.206Z,63.48
2022-12-15T14:30:31.833Z,63.28
2022-12-15T14:33:04.932Z,63.73
2022-12-15T14:35:49.414Z,63.78
2022-12-15T14:38:38.540Z,63.82
2022-12-15T14:41:07.256Z,63.66
2022-12-15T14:43:40.006Z,63.60
2022-12-15T14:46:15.359Z,63.23
2022-12-15T14:49:09.026Z,62.85
2022-12-15T14:51:46.644Z,62.54
2022-12-15T14:54:39.670Z,61.92
2022-12-15T14:57:15.151Z,61.68
2022-12-15T14:59:45.965Z,61.70
2022-12-15T15:02:26.198Z,61.29
2022-12-15T15:03:12.380Z,61.17
2022-12-15T15:05:03.601Z,61.28
2022-12-15T15:07:34.336Z,61.21
2022-12-15T15:10:05.149Z,61.26
2022-12-15T15:12:46.122Z,61.01
2022-12-15T15:15:25.035Z,61.19
2022-12-15T15:17:59.408Z,60.86
2022-12-15T15:20:34.271Z,61.08
2022-12-15T15:23:17.442Z,60.94
2022-12-15T15:26:05.869Z,61.61
2022-12-15T15:28:41.054Z,61.72
2022-12-15T15:31:30.219Z,61.39
2022-12-15T15:34:00.431Z,61.29
2022-12-15T15:36:38.619Z,61.57
2022-12-15T15:39:16.262Z,61.44
2022-12-15T15:41:43.507Z,61.10
2022-12-15T15:44:15.739Z,60.62
2022-12-15T15:46:51.160Z,60.47
2022-12-15T15:49:21.581Z,60.45
2022-12-15T15:51:49.260Z,60.37
2022-12-15T15:54:25.061Z,60.34
2022-12-15T15:56:52.294Z,60.09
2022-12-15T15:59:21.658Z,60.20
2022-12-15T16:01:58.172Z,60.21
2022-12-15T16:04:26.067Z,60.13
2022-12-15T16:06:54.075Z,59.99
2022-12-15T16:09:21.728Z,59.49
2022-12-15T16:11:49.363Z,59.60
2022-12-15T16:14:18.596Z,59.43
2022-12-15T16:16:46.309Z,59.35
2022-12-15T16:19:13.456Z,59.33
2022-12-15T16:21:42.923Z,59.37
2022-12-15T16:24:18.676Z,59.50
2022-12-15T16:26:50.516Z,59.31
2022-12-15T16:29:20.798Z,59.32
2022-12-15T16:31:48.347Z,59.34
2022-12-15T16:34:16.624Z,59.06
2022-12-15T16:36:45.336Z,58.73
2022-12-15T16:39:35.824Z,59.35
2022-12-15T16:42:03.597Z,59.30
2022-12-15T16:44:31.035Z,59.43
2022-12-15T16:46:58.623Z,59.26
2022-12-15T16:49:26.012Z,59.46
2022-12-15T16:51:54.279Z,59.32
2022-12-15T16:54:26.841Z,59.14
2022-12-15T16:56:56.551Z,58.88
2022-12-15T16:59:34.702Z,58.77
2022-12-15T17:02:27.879Z,59.08
2022-12-15T17:04:55.987Z,58.63
2022-12-15T17:07:27.478Z,58.89
2022-12-15T17:09:56.041Z,58.59
2022-12-15T17:12:23.617Z,58.90
2022-12-15T17:14:50.846Z,58.86
2022-12-15T17:17:20.114Z,58.97
2022-12-15T17:20:19.758Z,59.11
2022-12-15T17:22:34.735Z,59.33
2022-12-15T17:25:02.028Z,59.54
2022-12-15T17:27:30.353Z,59.67
2022-12-15T17:30:00.495Z,59.39
2022-12-15T17:32:27.688Z,59.78
2022-12-15T17:34:55.059Z,59.92
2022-12-15T17:37:22.631Z,59.92
2022-12-15T17:39:49.888Z,60.01
2022-12-15T17:42:20.511Z,60.22
2022-12-15T17:44:49.240Z,60.18
2022-12-15T17:47:19.078Z,60.15
2022-12-15T17:49:46.640Z,60.14
2022-12-15T17:52:26.620Z,60.18
2022-12-15T17:54:55.177Z,60.26
2022-12-15T17:57:22.553Z,60.49
2022-12-15T17:59:49.769Z,60.77
2022-12-15T18:02:17.181Z,60.82
2022-12-15T18:04:45.387Z,60.95
2022-12-15T18:07:22.771Z,61.25
2022-12-15T18:09:54.079Z,61.06
2022-12-15T18:12:40.191Z,61.06
2022-12-15T18:15:21.124Z,61.20
2022-12-15T18:17:50.645Z,61.61
2022-12-15T18:20:18.673Z,62.15
2022-12-15T18:22:49.146Z,62.21
2022-12-15T18:25:26.257Z,62.56
2022-12-15T18:27:59.340Z,63.07
2022-12-15T18:30:27.884Z,63.10
2022-12-15T18:32:58.926Z,63.25
2022-12-15T18:35:40.803Z,63.57
2022-12-15T18:38:18.925Z,63.80
2022-12-15T18:40:57.015Z,63.88
2022-12-15T18:43:32.879Z,64.11
2022-12-15T18:46:02.736Z,64.04
2022-12-15T18:48:35.183Z,64.25
2022-12-15T18:51:19.975Z,64.08
2022-12-15T18:53:49.082Z,64.23
2022-12-15T18:56:18.427Z,64.23
2022-12-15T18:58:45.953Z,64.47
2022-12-15T19:01:13.552Z,64.44
2022-12-15T19:03:41.002Z,64.60
2022-12-15T19:06:26.202Z,64.67
2022-12-15T19:08:53.672Z,64.43
2022-12-15T19:11:29.472Z,64.63
2022-12-15T19:14:01.243Z,64.46
2022-12-15T19:16:30.238Z,64.34
2022-12-15T19:18:57.413Z,64.71
2022-12-15T19:21:33.779Z,65.11
2022-12-15T19:24:01.220Z,64.97
2022-12-15T19:26:28.448Z,65.00
2022-12-15T19:28:55.971Z,64.93
2022-12-15T19:31:23.216Z,65.00
2022-12-15T19:33:50.917Z,64.92
2022-12-15T19:36:24.183Z,65.32
2022-12-15T19:38:54.982Z,64.89
2022-12-15T19:41:22.212Z,65.19
2022-12-15T19:43:49.419Z,65.34
2022-12-15T19:46:20.436Z,65.31
2022-12-15T19:48:48.650Z,65.25
2022-12-15T19:51:20.349Z,65.43
2022-12-15T19:53:49.130Z,65.41
2022-12-15T19:56:22.374Z,65.69
2022-12-15T19:58:49.940Z,65.67
2022-12-15T20:01:19.856Z,65.76
2022-12-15T20:03:52.736Z,65.25
2022-12-15T20:06:25.862Z,65.46
2022-12-15T20:08:56.245Z,65.33
2022-12-15T20:11:30.614Z,65.51
2022-12-15T20:13:58.421Z,65.63
2022-12-15T20:16:25.686Z,65.88
2022-12-15T20:18:55.552Z,65.85
2022-12-15T20:21:30.877Z,65.47
2022-12-15T20:24:09.053Z,65.43
2022-12-15T20:26:38.443Z,65.50
2022-12-15T20:29:24.190Z,65.89
2022-12-15T20:31:52.011Z,65.64
2022-12-15T20:34:19.504Z,65.92
2022-12-15T20:36:46.809Z,65.74
2022-12-15T20:39:28.313Z,65.89
2022-12-15T20:41:56.571Z,65.62
2022-12-15T20:44:24.195Z,65.68
2022-12-15T20:46:51.757Z,65.51
2022-12-15T20:49:22.416Z,65.67
2022-12-15T20:51:50.035Z,65.69
2022-12-15T20:54:21.699Z,65.60
2022-12-15T20:56:49.940Z,65.64
2022-12-15T20:59:17.905Z,65.75
2022-12-15T21:01:45.754Z,65.72
2022-12-15T21:04:30.551Z,65.52
2022-12-15T21:06:57.927Z,65.76
2022-12-15T21:09:25.230Z,65.43
2022-12-15T21:11:53.392Z,65.61
2022-12-15T21:14:24.195Z,65.49
2022-12-15T21:16:52.263Z,65.59
2022-12-15T21:19:21.177Z,65.59
2022-12-15T21:21:55.058Z,65.54
2022-12-15T21:24:28.863Z,65.79
2022-12-15T21:26:56.281Z,66.09
2022-12-15T21:29:27.704Z,66.03
2022-12-15T21:31:54.933Z,66.16
2022-12-15T21:34:22.069Z,65.95
2022-12-15T21:36:55.338Z,65.55
2022-12-15T21:39:29.949Z,65.88
2022-12-15T21:42:14.415Z,65.67
2022-12-15T21:44:42.022Z,65.41
2022-12-15T21:47:28.629Z,65.86
2022-12-15T21:49:55.809Z,65.71
2022-12-15T21:52:26.974Z,65.65
2022-12-15T21:54:54.132Z,65.84
2022-12-15T21:57:21.920Z,65.64
2022-12-15T21:59:49.097Z,66.00
2022-12-15T22:02:27.136Z,65.70
2022-12-15T22:04:54.986Z,65.90
2022-12-15T22:07:22.438Z,65.96
2022-12-15T22:09:49.650Z,65.94
2022-12-15T22:12:23.437Z,65.99
2022-12-15T22:14:51.712Z,66.23
2022-12-15T22:17:21.896Z,66.15
2022-12-15T22:19:49.174Z,65.97
2022-12-15T22:22:16.401Z,65.87
2022-12-15T22:24:43.985Z,66.09
2022-12-15T22:27:21.122Z,66.09
2022-12-15T22:29:50.131Z,66.19
2022-12-15T22:32:17.717Z,66.34
2022-12-15T22:34:45.313Z,66.16
2022-12-15T22:37:12.638Z,66.02
2022-12-15T22:39:39.891Z,66.09
2022-12-15T22:42:08.046Z,66.42
2022-12-15T22:44:37.871Z,66.15
2022-12-15T22:47:06.614Z,66.19
2022-12-15T22:49:40.469Z,66.12
2022-12-15T22:52:19.705Z,66.35
2022-12-15T22:54:47.730Z,66.27
2022-12-15T22:57:24.369Z,66.01
2022-12-15T23:00:02.865Z,65.89
2022-12-15T23:02:36.676Z,66.02
2022-12-15T23:05:06.061Z,66.06
2022-12-15T23:07:34.693Z,65.65
2022-12-15T23:10:02.379Z,65.83
2022-12-15T23:12:29.509Z,65.58
2022-12-15T23:14:56.711Z,65.62
2022-12-15T23:17:23.938Z,65.92
2022-12-15T23:19:51.486Z,65.97
2022-12-15T23:22:18.719Z,65.58
2022-12-15T23:24:45.884Z,65.95
2022-12-15T23:27:13.148Z,66.00
2022-12-15T23:29:40.370Z,66.05
2022-12-15T23:32:07.622Z,65.90
2022-12-15T23:34:35.550Z,66.06
2022-12-15T23:37:02.975Z,66.26
2022-12-15T23:39:30.157Z,66.05
2022-12-15T23:41:57.360Z,66.14
2022-12-15T23:44:24.618Z,65.95
2022-12-15T23:46:51.882Z,66.01
2022-12-15T23:49:19.062Z,65.79
2022-12-15T23:51:46.228Z,65.98
2022-12-15T23:54:15.277Z,65.98
2022-12-15T23:56:42.624Z,65.98
2022-12-15T23:59:10.145Z,65.80
